createdAt,value
2022-10-02T00:01:41.599Z,19.30
2022-10-02T00:04:14.634Z,19.37
2022-10-02T00:06:46.897Z,19.48
2022-10-02T00:09:26.501Z,19.44
2022-10-02T00:11:57.962Z,19.35
2022-10-02T00:14:28.681Z,18.84
2022-10-02T00:16:59.490Z,19.03
2022-10-02T00:19:26.841Z,18.56
2022-10-02T00:21:59.222Z,18.78
2022-10-02T00:24:44.109Z,18.68
2022-10-02T00:27:29.175Z,18.86
2022-10-02T00:30:00.282Z,18.54
2022-10-02T00:32:45.268Z,18.21
2022-10-02T00:35:18.008Z,18.36
2022-10-02T00:38:12.460Z,18.70
2022-10-02T00:41:12.418Z,18.59
2022-10-02T00:44:00.328Z,18.49
2022-10-02T00:46:33.099Z,18.37
2022-10-02T00:48:59.921Z,18.64
2022-10-02T00:51:50.831Z,18.23
2022-10-02T00:54:29.340Z,18.58
2022-10-02T00:57:25.291Z,18.37
2022-10-02T00:59:51.927Z,18.25
2022-10-02T01:02:36.661Z,18.66
2022-10-02T01:05:08.633Z,18.47
2022-10-02T01:07:42.157Z,18.70
2022-10-02T01:10:11.348Z,18.72
2022-10-02T01:12:39.288Z,18.69
2022-10-02T01:15:18.622Z,18.30
2022-10-02T01:17:48.220Z,18.43
2022-10-02T01:20:19.247Z,18.50
2022-10-02T01:22:57.920Z,18.67
2022-10-02T01:25:24.763Z,18.38
2022-10-02T01:27:53.833Z,18.17
2022-10-02T01:30:21.825Z,18.40
2022-10-02T01:32:58.017Z,18.34
2022-10-02T01:35:31.651Z,18.40
2022-10-02T01:38:00.542Z,18.35
2022-10-02T01:40:35.869Z,18.59
2022-10-02T01:43:10.877Z,18.93
2022-10-02T01:46:07.750Z,18.87
2022-10-02T01:48:47.675Z,18.67
2022-10-02T01:51:38.891Z,18.44
2022-10-02T01:54:17.750Z,18.29
2022-10-02T01:57:09.635Z,18.07
2022-10-02T01:59:43.448Z,18.14
2022-10-02T02:02:12.676Z,18.09
2022-10-02T02:04:44.957Z,17.82
2022-10-02T02:07:20.826Z,17.88
2022-10-02T02:10:04.486Z,17.40
2022-10-02T02:12:45.683Z,17.71
2022-10-02T02:16:03.994Z,17.46
2022-10-02T02:18:48.063Z,17.58
2022-10-02T02:21:22.921Z,17.25
2022-10-02T02:23:50.575Z,17.92
2022-10-02T02:26:19.935Z,18.22
2022-10-02T02:28:55.025Z,18.19
2022-10-02T02:31:28.726Z,18.32
2022-10-02T02:34:02.478Z,17.88
2022-10-02T02:36:40.607Z,17.41
2022-10-02T02:39:11.743Z,17.73
2022-10-02T02:41:44.391Z,17.95
2022-10-02T02:44:31.478Z,17.47
2022-10-02T02:47:22.624Z,17.82
2022-10-02T02:50:01.728Z,17.65
2022-10-02T02:52:37.894Z,17.84
2022-10-02T02:55:12.777Z,17.35
2022-10-02T02:57:47.789Z,17.50
2022-10-02T03:00:19.944Z,17.76
2022-10-02T03:02:46.691Z,17.70
2022-10-02T03:05:16.159Z,17.54
2022-10-02T03:07:57.017Z,17.59
2022-10-02T03:10:31.082Z,17.53
2022-10-02T03:13:28.448Z,17.15
2022-10-02T03:16:34.323Z,17.38
2022-10-02T03:19:01.065Z,17.50
2022-10-02T03:21:42.651Z,17.63
2022-10-02T03:24:15.875Z,17.45
2022-10-02T03:27:17.925Z,17.11
2022-10-02T03:29:51.408Z,17.26
2022-10-02T03:32:19.461Z,17.10
2022-10-02T03:34:48.761Z,17.04
2022-10-02T03:37:15.978Z,17.44
2022-10-02T03:39:45.839Z,17.56
2022-10-02T03:42:15.000Z,17.20
2022-10-02T03:44:43.294Z,17.39
2022-10-02T03:47:09.830Z,17.52
2022-10-02T03:49:36.422Z,17.29
2022-10-02T03:52:03.020Z,16.62
2022-10-02T03:54:34.166Z,16.49
2022-10-02T03:57:06.122Z,16.15
2022-10-02T04:00:07.313Z,16.66
2022-10-02T04:02:52.345Z,16.91
2022-10-02T04:05:30.754Z,17.06
2022-10-02T04:08:08.604Z,17.16
2022-10-02T04:10:47.743Z,17.60
2022-10-02T04:13:26.633Z,17.51
2022-10-02T04:16:11.472Z,17.35
2022-10-02T04:18:49.788Z,17.38
2022-10-02T04:21:32.148Z,17.64
2022-10-02T04:24:08.235Z,17.44
2022-10-02T04:26:38.187Z,17.63
2022-10-02T04:29:37.521Z,16.86
2022-10-02T04:32:16.554Z,16.85
2022-10-02T04:34:43.630Z,16.50
2022-10-02T04:37:31.989Z,16.48
2022-10-02T04:40:29.145Z,16.44
2022-10-02T04:43:10.576Z,16.96
2022-10-02T04:46:09.479Z,16.98
2022-10-02T04:48:48.103Z,16.51
2022-10-02T04:51:44.751Z,16.12
2022-10-02T04:54:34.089Z,16.18
2022-10-02T04:57:19.288Z,16.40
2022-10-02T04:59:58.046Z,16.39
2022-10-02T05:02:50.334Z,16.12
2022-10-02T05:05:26.062Z,16.37
2022-10-02T05:08:09.715Z,16.39
2022-10-02T05:11:03.934Z,16.46
2022-10-02T05:13:40.051Z,16.65
2022-10-02T05:16:31.511Z,16.81
2022-10-02T05:19:24.320Z,16.85
2022-10-02T05:22:21.649Z,17.16
2022-10-02T05:25:15.423Z,17.44
2022-10-02T05:27:48.016Z,18.10
2022-10-02T05:30:17.104Z,17.25
2022-10-02T05:33:24.854Z,17.72
2022-10-02T05:35:52.000Z,17.32
2022-10-02T05:38:43.300Z,17.30
2022-10-02T05:41:23.565Z,16.92
2022-10-02T05:43:59.323Z,17.52
2022-10-02T05:46:29.142Z,17.92
2022-10-02T05:48:59.820Z,17.29
2022-10-02T05:51:41.964Z,17.03
2022-10-02T05:54:23.408Z,17.09
2022-10-02T05:57:27.449Z,17.56
2022-10-02T06:00:00.937Z,17.15
2022-10-02T06:02:38.186Z,17.16
2022-10-02T06:05:36.738Z,16.91
2022-10-02T06:08:07.108Z,17.46
2022-10-02T06:10:45.280Z,17.52
2022-10-02T06:13:37.980Z,17.24
2022-10-02T06:16:19.520Z,16.94
2022-10-02T06:18:53.024Z,16.96
2022-10-02T06:21:36.031Z,17.58
2022-10-02T06:24:11.464Z,16.93
2022-10-02T06:27:04.244Z,17.76
2022-10-02T06:29:41.548Z,16.84
2022-10-02T06:32:32.575Z,17.26
2022-10-02T06:35:00.296Z,17.26
2022-10-02T06:37:48.028Z,16.69
2022-10-02T06:41:00.111Z,16.93
2022-10-02T06:43:58.832Z,17.04
2022-10-02T06:46:51.177Z,17.49
2022-10-02T06:49:36.700Z,17.24
2022-10-02T06:52:49.094Z,16.85
2022-10-02T06:55:37.135Z,17.23
2022-10-02T06:58:30.226Z,17.37
2022-10-02T07:01:15.261Z,17.31
2022-10-02T07:03:50.120Z,17.44
2022-10-02T07:06:16.680Z,17.33
2022-10-02T07:09:08.796Z,16.91
2022-10-02T07:12:04.296Z,17.11
2022-10-02T07:14:58.565Z,17.12
2022-10-02T07:17:37.014Z,16.85
2022-10-02T07:20:40.972Z,17.11
2022-10-02T07:23:31.610Z,17.36
2022-10-02T07:26:16.308Z,16.75
2022-10-02T07:29:20.775Z,16.95
2022-10-02T07:31:50.348Z,16.98
2022-10-02T07:34:26.173Z,17.00
2022-10-02T07:37:37.525Z,16.63
2022-10-02T07:40:24.967Z,17.02
2022-10-02T07:43:14.095Z,17.73
2022-10-02T07:45:42.293Z,17.09
2022-10-02T07:48:23.919Z,17.43
2022-10-02T07:51:47.099Z,17.18
2022-10-02T07:54:50.469Z,17.20
2022-10-02T07:57:26.177Z,17.01
2022-10-02T07:59:59.507Z,17.14
2022-10-02T08:02:51.777Z,16.95
2022-10-02T08:05:21.923Z,17.33
2022-10-02T08:07:52.632Z,17.13
2022-10-02T08:10:25.821Z,17.47
2022-10-02T08:13:03.164Z,17.44
2022-10-02T08:15:34.914Z,17.19
2022-10-02T08:18:33.254Z,17.00
2022-10-02T08:21:01.724Z,17.61
2022-10-02T08:23:31.492Z,17.05
2022-10-02T08:26:07.026Z,17.42
2022-10-02T08:28:54.666Z,17.52
2022-10-02T08:31:23.646Z,18.20
2022-10-02T08:33:50.453Z,17.18
2022-10-02T08:36:35.986Z,17.43
2022-10-02T08:39:39.676Z,17.22
2022-10-02T08:42:31.068Z,17.90
2022-10-02T08:45:34.355Z,18.01
2022-10-02T08:48:17.534Z,18.27
2022-10-02T08:51:06.079Z,17.89
2022-10-02T08:54:09.246Z,17.23
2022-10-02T08:57:13.409Z,17.38
2022-10-02T08:59:52.805Z,17.52
2022-10-02T09:02:27.606Z,17.38
2022-10-02T09:05:28.428Z,17.62
2022-10-02T09:08:13.653Z,17.68
2022-10-02T09:11:19.367Z,17.70
2022-10-02T09:14:02.808Z,17.09
2022-10-02T09:16:34.347Z,17.32
2022-10-02T09:19:04.233Z,17.13
2022-10-02T09:21:54.706Z,17.40
2022-10-02T09:24:59.388Z,17.36
2022-10-02T09:27:34.646Z,17.49
2022-10-02T09:30:21.275Z,17.25
2022-10-02T09:33:18.048Z,17.57
2022-10-02T09:35:54.961Z,17.56
2022-10-02T09:38:30.427Z,17.85
2022-10-02T09:41:18.472Z,17.96
2022-10-02T09:44:06.240Z,17.81
2022-10-02T09:46:59.316Z,18.05
2022-10-02T09:49:50.287Z,18.13
2022-10-02T09:52:29.006Z,18.27
2022-10-02T09:55:17.264Z,17.93
2022-10-02T09:58:12.652Z,17.83
2022-10-02T10:04:14.162Z,18.04
2022-10-02T10:07:00.143Z,18.17
2022-10-02T10:10:20.118Z,17.50
2022-10-02T10:13:06.714Z,17.91
2022-10-02T10:15:56.626Z,18.16
2022-10-02T10:18:28.831Z,17.77
2022-10-02T10:20:59.822Z,17.89
2022-10-02T10:24:05.336Z,18.37
2022-10-02T10:26:54.767Z,18.22
2022-10-02T10:29:41.934Z,18.28
2022-10-02T10:32:31.019Z,18.41
2022-10-02T10:35:15.861Z,17.97
2022-10-02T10:38:13.736Z,18.05
2022-10-02T10:41:01.625Z,18.22
2022-10-02T10:43:33.917Z,18.48
2022-10-02T10:46:09.603Z,18.12
2022-10-02T10:49:06.706Z,18.43
2022-10-02T10:52:07.522Z,18.36
2022-10-02T10:55:02.772Z,18.30
2022-10-02T10:57:52.025Z,18.29
2022-10-02T11:00:22.789Z,18.68
2022-10-02T11:03:11.108Z,18.24
2022-10-02T11:06:15.211Z,18.43
2022-10-02T11:09:21.058Z,18.56
2022-10-02T11:12:08.838Z,18.49
2022-10-02T11:15:01.960Z,18.43
2022-10-02T11:17:31.418Z,18.54
2022-10-02T11:20:16.582Z,18.44
2022-10-02T11:23:11.221Z,18.29
2022-10-02T11:25:55.685Z,19.03
2022-10-02T11:29:00.264Z,19.26
2022-10-02T11:31:34.641Z,19.28
2022-10-02T11:34:18.555Z,18.82
2022-10-02T11:37:18.474Z,18.68
2022-10-02T11:39:51.168Z,18.75
2022-10-02T11:42:29.816Z,18.53
2022-10-02T11:45:18.076Z,18.81
2022-10-02T11:48:02.334Z,18.74
2022-10-02T11:51:20.792Z,18.44
2022-10-02T11:54:02.474Z,18.21
2022-10-02T11:56:53.412Z,18.27
2022-10-02T12:00:08.283Z,18.43
2022-10-02T12:02:40.508Z,18.74
2022-10-02T12:05:08.381Z,18.99
2022-10-02T12:07:50.324Z,18.76
2022-10-02T12:10:33.656Z,18.55
2022-10-02T12:13:25.140Z,18.35
2022-10-02T12:16:06.361Z,18.90
2022-10-02T12:19:00.154Z,18.94
2022-10-02T12:22:04.017Z,18.53
2022-10-02T12:25:25.601Z,18.34
2022-10-02T12:28:05.258Z,18.30
2022-10-02T12:31:01.652Z,18.56
2022-10-02T12:33:45.253Z,18.16
2022-10-02T12:36:46.973Z,17.99
2022-10-02T12:39:28.333Z,18.37
2022-10-02T12:42:20.576Z,17.94
2022-10-02T12:44:51.563Z,17.84
2022-10-02T12:48:15.512Z,18.15
2022-10-02T12:51:27.214Z,18.55
2022-10-02T12:54:26.906Z,18.07
2022-10-02T12:57:45.391Z,18.09
2022-10-02T13:00:33.554Z,17.98
2022-10-02T13:03:05.649Z,17.73
2022-10-02T13:05:32.465Z,17.52
2022-10-02T13:08:05.461Z,18.02
2022-10-02T13:11:02.312Z,18.23
2022-10-02T13:14:05.803Z,18.34
2022-10-02T13:17:00.284Z,18.85
2022-10-02T13:19:39.507Z,18.75
2022-10-02T13:22:19.861Z,18.75
2022-10-02T13:25:25.645Z,18.82
2022-10-02T13:28:21.870Z,18.96
2022-10-02T13:31:21.893Z,18.54
2022-10-02T13:34:00.688Z,18.58
2022-10-02T13:37:15.798Z,18.54
2022-10-02T13:39:58.400Z,18.71
2022-10-02T13:42:42.325Z,18.71
2022-10-02T13:45:44.934Z,19.04
2022-10-02T13:48:55.172Z,19.42
2022-10-02T13:51:47.617Z,19.57
2022-10-02T13:54:33.455Z,19.42
2022-10-02T13:57:37.480Z,19.78
2022-10-02T14:00:24.178Z,19.69
2022-10-02T14:03:09.895Z,19.69
2022-10-02T14:05:45.632Z,19.53
2022-10-02T14:08:31.644Z,19.64
2022-10-02T14:11:44.939Z,19.58
2022-10-02T14:14:29.751Z,19.64
2022-10-02T14:17:19.420Z,19.51
2022-10-02T14:20:19.124Z,19.75
2022-10-02T14:22:57.576Z,20.23
2022-10-02T14:25:44.444Z,19.60
2022-10-02T14:28:19.223Z,19.83
2022-10-02T14:31:04.317Z,19.78
2022-10-02T14:33:51.822Z,19.58
2022-10-02T14:36:30.268Z,19.94
2022-10-02T14:39:06.094Z,19.73
2022-10-02T14:42:20.634Z,19.42
2022-10-02T14:45:08.100Z,18.74
2022-10-02T14:47:57.577Z,18.91
2022-10-02T14:50:39.276Z,18.90
2022-10-02T14:53:59.124Z,19.47
2022-10-02T14:56:53.609Z,19.47
2022-10-02T14:59:57.653Z,19.10
2022-10-02T15:02:50.733Z,18.66
2022-10-02T15:05:47.532Z,19.22
2022-10-02T15:08:39.123Z,19.03
2022-10-02T15:11:18.395Z,18.92
2022-10-02T15:14:01.959Z,19.26
2022-10-02T15:17:00.045Z,18.99
2022-10-02T15:19:55.745Z,19.09
2022-10-02T15:22:31.759Z,18.92
2022-10-02T15:25:06.628Z,19.00
2022-10-02T15:28:35.251Z,18.87
2022-10-02T15:31:17.303Z,18.88
2022-10-02T15:34:11.139Z,18.95
2022-10-02T15:36:51.911Z,19.04
2022-10-02T15:39:27.440Z,19.04
2022-10-02T15:42:09.353Z,18.82
2022-10-02T15:44:51.299Z,18.30
2022-10-02T15:47:25.624Z,18.14
2022-10-02T15:50:16.908Z,18.36
2022-10-02T15:53:28.460Z,18.43
2022-10-02T15:55:57.947Z,18.55
2022-10-02T15:58:47.516Z,18.41
2022-10-02T16:01:27.560Z,18.21
2022-10-02T16:04:07.637Z,18.05
2022-10-02T16:06:53.574Z,18.23
2022-10-02T16:09:44.168Z,19.00
2022-10-02T16:12:22.827Z,18.38
2022-10-02T16:15:07.970Z,18.20
2022-10-02T16:18:16.557Z,18.47
2022-10-02T16:21:20.589Z,17.83
2022-10-02T16:24:02.284Z,18.11
2022-10-02T16:26:40.946Z,18.46
2022-10-02T16:29:35.101Z,18.59
2022-10-02T16:32:26.641Z,18.84
2022-10-02T16:35:16.587Z,18.40
2022-10-02T16:37:54.945Z,18.39
2022-10-02T16:40:28.478Z,18.09
2022-10-02T16:43:20.024Z,18.23
2022-10-02T16:46:11.379Z,18.08
2022-10-02T16:48:56.647Z,17.60
2022-10-02T16:51:41.386Z,18.07
2022-10-02T16:54:14.289Z,18.17
2022-10-02T16:56:51.033Z,18.25
2022-10-02T16:59:24.312Z,18.06
2022-10-02T17:02:17.447Z,18.35
2022-10-02T17:05:22.879Z,18.00
2022-10-02T17:08:09.236Z,18.02
2022-10-02T17:10:56.947Z,18.21
2022-10-02T17:13:48.265Z,17.59
2022-10-02T17:16:39.326Z,17.82
2022-10-02T17:19:45.792Z,18.12
2022-10-02T17:22:40.090Z,18.20
2022-10-02T17:25:29.771Z,18.60
2022-10-02T17:28:03.004Z,18.43
2022-10-02T17:30:50.403Z,18.54
2022-10-02T17:33:22.296Z,18.32
2022-10-02T17:35:55.941Z,18.21
2022-10-02T17:38:25.703Z,18.20
2022-10-02T17:41:10.296Z,18.22
2022-10-02T17:43:47.797Z,17.77
2022-10-02T17:46:20.222Z,17.86
2022-10-02T17:49:01.838Z,17.72
2022-10-02T17:51:51.783Z,17.92
2022-10-02T17:54:48.290Z,17.60
2022-10-02T17:57:33.395Z,17.69
2022-10-02T18:00:22.966Z,17.60
2022-10-02T18:03:18.564Z,17.11
2022-10-02T18:05:50.901Z,17.23
2022-10-02T18:08:35.318Z,17.35
2022-10-02T18:11:23.751Z,16.77
2022-10-02T18:14:05.341Z,17.11
2022-10-02T18:17:01.624Z,17.48
2022-10-02T18:19:59.934Z,17.43
2022-10-02T18:22:50.599Z,17.27
2022-10-02T18:25:32.776Z,17.29
2022-10-02T18:28:08.465Z,17.71
2022-10-02T18:30:41.259Z,17.83
2022-10-02T18:33:24.191Z,17.56
2022-10-02T18:36:13.562Z,17.44
2022-10-02T18:39:19.211Z,17.46
2022-10-02T18:41:54.258Z,17.43
2022-10-02T18:44:29.582Z,17.52
2022-10-02T18:47:26.631Z,16.99
2022-10-02T18:50:00.154Z,17.63
2022-10-02T18:52:35.726Z,17.66
2022-10-02T18:55:08.518Z,17.92
2022-10-02T18:57:55.265Z,18.02
2022-10-02T19:00:26.126Z,17.99
2022-10-02T19:03:29.981Z,17.27
2022-10-02T19:06:20.041Z,17.54
2022-10-02T19:09:27.175Z,17.56
2022-10-02T19:12:15.670Z,17.01
2022-10-02T19:14:46.434Z,17.37
2022-10-02T19:17:36.124Z,17.00
2022-10-02T19:20:34.061Z,17.23
2022-10-02T19:23:01.644Z,16.85
2022-10-02T19:25:28.925Z,17.46
2022-10-02T19:27:56.011Z,17.45
2022-10-02T19:30:26.662Z,17.33
2022-10-02T19:32:56.708Z,17.16
2022-10-02T19:35:32.538Z,17.21
2022-10-02T19:38:36.666Z,17.57
2022-10-02T19:41:10.547Z,17.36
2022-10-02T19:43:48.557Z,17.43
2022-10-02T19:46:16.894Z,17.59
2022-10-02T19:48:44.051Z,17.68
2022-10-02T19:51:20.472Z,17.80
2022-10-02T19:54:06.247Z,17.87
2022-10-02T19:56:44.725Z,17.72
2022-10-02T19:59:20.236Z,17.88
2022-10-02T20:01:52.317Z,17.66
2022-10-02T20:04:24.396Z,17.64
2022-10-02T20:06:57.375Z,17.36
2022-10-02T20:09:43.515Z,17.58
2022-10-02T20:12:24.228Z,17.68
2022-10-02T20:15:14.429Z,17.87
2022-10-02T20:17:41.574Z,17.48
2022-10-02T20:20:16.244Z,17.46
2022-10-02T20:22:53.743Z,17.53
2022-10-02T20:25:28.614Z,17.57
2022-10-02T20:28:18.343Z,17.31
2022-10-02T20:30:50.685Z,17.26
2022-10-02T20:33:35.133Z,17.37
2022-10-02T20:36:53.102Z,17.45
2022-10-02T20:39:26.324Z,17.33
2022-10-02T20:42:03.032Z,17.36
2022-10-02T20:44:33.883Z,17.55
2022-10-02T20:47:27.131Z,17.01
2022-10-02T20:50:25.970Z,17.00
2022-10-02T20:53:09.992Z,17.06
2022-10-02T20:55:42.605Z,17.27
2022-10-02T20:58:43.393Z,17.45
2022-10-02T21:01:21.628Z,17.05
2022-10-02T21:04:07.056Z,17.20
2022-10-02T21:06:50.679Z,17.32
2022-10-02T21:10:10.539Z,16.75
2022-10-02T21:13:24.387Z,17.11
2022-10-02T21:16:16.311Z,17.20
2022-10-02T21:19:15.812Z,17.00
2022-10-02T21:22:15.858Z,17.13
2022-10-02T21:28:26.482Z,17.10
2022-10-02T21:30:53.135Z,17.18
2022-10-02T21:33:22.918Z,17.15
2022-10-02T21:35:52.224Z,17.32
2022-10-02T21:38:34.003Z,17.31
2022-10-02T21:41:21.409Z,17.05
2022-10-02T21:44:18.106Z,16.88
2022-10-02T21:46:44.632Z,16.90
2022-10-02T21:49:45.978Z,17.07
2022-10-02T21:52:30.819Z,16.97
2022-10-02T21:55:15.927Z,17.22
2022-10-02T21:57:51.727Z,16.98
2022-10-02T22:00:24.980Z,16.80
2022-10-02T22:03:32.256Z,16.99
2022-10-02T22:06:21.223Z,17.21
2022-10-02T22:09:02.535Z,17.03
2022-10-02T22:11:53.506Z,17.01
2022-10-02T22:14:30.094Z,16.92
2022-10-02T22:17:25.999Z,16.84
2022-10-02T22:20:14.225Z,16.93
2022-10-02T22:22:54.609Z,16.86
2022-10-02T22:25:32.971Z,17.11
2022-10-02T22:28:05.421Z,17.04
2022-10-02T22:30:56.713Z,16.92
2022-10-02T22:33:54.153Z,16.15
2022-10-02T22:36:56.100Z,15.52
2022-10-02T22:39:22.672Z,16.28
2022-10-02T22:42:10.346Z,15.62
2022-10-02T22:44:54.371Z,16.10
2022-10-02T22:47:34.931Z,15.37
2022-10-02T22:50:26.089Z,15.41
2022-10-02T22:52:52.626Z,14.90
2022-10-02T22:55:22.569Z,15.43
2022-10-02T22:58:02.460Z,13.83
2022-10-02T23:00:36.888Z,13.99
2022-10-02T23:03:15.107Z,15.23
2022-10-02T23:05:52.798Z,15.44
2022-10-02T23:08:50.345Z,15.78
2022-10-02T23:11:31.904Z,15.78
2022-10-02T23:14:15.033Z,15.63
2022-10-02T23:16:48.127Z,15.96
2022-10-02T23:19:20.826Z,16.20
2022-10-02T23:21:52.171Z,16.23
2022-10-02T23:24:39.291Z,16.42
2022-10-02T23:27:16.546Z,16.45
2022-10-02T23:29:44.272Z,16.59
2022-10-02T23:32:20.232Z,16.56
2022-10-02T23:35:05.487Z,16.38
2022-10-02T23:37:43.732Z,16.38
2022-10-02T23:40:49.327Z,16.39
2022-10-02T23:43:48.669Z,16.27
2022-10-02T23:46:25.802Z,16.00
2022-10-02T23:48:54.045Z,16.24
2022-10-02T23:51:32.434Z,16.23
2022-10-02T23:54:43.890Z,15.98
2022-10-02T23:57:10.395Z,15.24
2022-10-02T23:59:44.545Z,15.58
